Time;durP1;ratioP1;P1;durP2;ratioP2;P2;SDS_P1;SDS_P2;PMS_P1;PMS_P2;Temp;Humidity;BMP_temperature;BMP_pressure;BME280_temperature;BME280_humidity;BME280_pressure;Samples;Min_cycle;Max_cycle;Signal;HPM_P1;HPM_P2
2023/06/30 04:14:55;;;;;;;17.50;16.60;;;20.60;99.90;;;;;;5800409;23;20501;-73
2023/06/30 04:17:22;;;;;;;16.67;15.60;;;20.60;99.90;;;;;;4933206;29;20454;-73
2023/06/30 04:19:48;;;;;;;17.67;16.77;;;20.80;99.90;;;;;;4932282;29;20824;-72
2023/06/30 04:22:15;;;;;;;15.87;15.07;;;20.70;99.90;;;;;;4934867;29;20454;-72
2023/06/30 04:24:41;;;;;;;17.37;16.47;;;20.70;99.90;;;;;;4934716;29;20488;-72
2023/06/30 04:27:08;;;;;;;17.87;16.80;;;20.80;99.90;;;;;;4932400;29;20461;-72
2023/06/30 04:29:35;;;;;;;16.20;15.50;;;20.90;99.90;;;;;;4934543;29;20840;-72
2023/06/30 04:32:05;;;;;;;17.83;16.83;;;21.00;99.90;;;;;;4934340;29;21055;-72
2023/06/30 04:34:31;;;;;;;17.43;16.33;;;21.10;99.90;;;;;;4932556;29;20457;-72
2023/06/30 04:36:58;;;;;;;16.77;15.87;;;21.10;99.90;;;;;;4934568;29;20446;-72
2023/06/30 04:39:25;;;;;;;16.87;15.87;;;21.10;99.90;;;;;;4934335;29;20485;-72
2023/06/30 04:41:51;;;;;;;17.87;16.87;;;21.20;99.90;;;;;;4934449;29;20446;-72
2023/06/30 04:44:18;;;;;;;16.97;16.17;;;21.20;99.90;;;;;;4934115;29;20458;-73
2023/06/30 04:46:45;;;;;;;17.57;16.57;;;21.20;99.90;;;;;;4934219;29;20453;-72
2023/06/30 04:49:13;;;;;;;17.60;16.30;;;21.30;99.90;;;;;;4934290;29;20864;-72
2023/06/30 04:51:39;;;;;;;16.13;15.30;;;21.30;99.90;;;;;;4934319;29;20456;-71
2023/06/30 04:54:06;;;;;;;15.60;14.90;;;21.40;99.90;;;;;;4934253;29;20445;-72
2023/06/30 04:56:33;;;;;;;15.13;14.50;;;21.30;99.90;;;;;;4934164;29;20450;-72
2023/06/30 04:58:59;;;;;;;17.17;16.10;;;21.30;99.90;;;;;;4934033;29;20473;-73
2023/06/30 05:01:26;;;;;;;16.20;15.40;;;21.30;99.90;;;;;;4933976;29;20459;-73
2023/06/30 05:03:53;;;;;;;16.30;15.20;;;21.30;99.90;;;;;;4933650;29;20876;-72
2023/06/30 05:06:21;;;;;;;22.57;21.40;;;21.40;99.90;;;;;;4933959;29;20536;-72
2023/06/30 05:08:47;;;;;;;34.63;32.13;;;21.40;99.90;;;;;;4931197;29;20446;-76
2023/06/30 05:11:14;;;;;;;37.73;35.03;;;20.90;99.90;;;;;;4933707;29;20513;-75
2023/06/30 05:13:41;;;;;;;39.13;36.37;;;20.30;99.90;;;;;;4933772;29;20512;-73
2023/06/30 05:16:07;;;;;;;41.57;38.67;;;19.90;99.90;;;;;;4933622;29;20488;-73
2023/06/30 05:18:34;;;;;;;42.10;39.03;;;19.60;99.90;;;;;;4933534;29;20454;-74
2023/06/30 05:21:01;;;;;;;44.50;41.13;;;19.40;99.90;;;;;;4933571;29;20442;-74
2023/06/30 05:23:29;;;;;;;41.37;38.03;;;19.50;99.90;;;;;;4931049;29;20456;-73
2023/06/30 05:25:58;;;;;;;41.53;38.43;;;19.50;99.90;;;;;;4933673;29;20457;-72
2023/06/30 05:28:25;;;;;;;42.27;39.37;;;19.40;99.90;;;;;;4933563;29;20450;-72
2023/06/30 05:30:51;;;;;;;41.73;38.60;;;19.30;99.90;;;;;;4933383;29;20497;-73
2023/06/30 05:33:18;;;;;;;41.87;38.70;;;19.20;99.90;;;;;;4933411;29;20455;-72
2023/06/30 05:35:45;;;;;;;41.43;38.57;;;19.20;99.90;;;;;;4933482;29;20458;-72
2023/06/30 05:38:11;;;;;;;42.40;39.50;;;19.20;99.90;;;;;;4933520;29;20449;-74
2023/06/30 05:40:39;;;;;;;44.27;41.07;;;19.30;99.90;;;;;;4933450;29;20488;-73
2023/06/30 05:43:06;;;;;;;42.40;39.70;;;19.20;99.90;;;;;;4933121;29;20449;-72
2023/06/30 05:45:33;;;;;;;42.77;39.37;;;19.20;99.90;;;;;;4933100;29;20442;-74
2023/06/30 05:47:59;;;;;;;40.47;37.30;;;19.10;99.90;;;;;;4933259;29;20453;-75
2023/06/30 05:50:27;;;;;;;41.87;38.80;;;19.10;99.90;;;;;;4933269;29;20445;-75
2023/06/30 05:52:54;;;;;;;38.90;36.13;;;19.00;99.90;;;;;;4933631;29;20452;-75
2023/06/30 05:55:20;;;;;;;42.60;39.00;;;19.00;99.90;;;;;;4933192;29;20569;-75
2023/06/30 05:57:48;;;;;;;43.03;39.50;;;18.90;99.90;;;;;;4932988;29;20948;-75
2023/06/30 06:00:16;;;;;;;40.93;37.93;;;19.00;99.90;;;;;;4933101;29;20493;-75
2023/06/30 06:02:43;;;;;;;45.03;41.53;;;18.90;99.90;;;;;;4933016;29;20500;-74
2023/06/30 06:05:09;;;;;;;43.00;39.60;;;18.80;99.90;;;;;;4933357;29;20528;-75
2023/06/30 06:07:36;;;;;;;42.80;39.70;;;18.70;99.90;;;;;;4933282;29;20445;-75
2023/06/30 06:10:04;;;;;;;43.90;40.53;;;18.70;99.90;;;;;;4933095;29;20454;-75
2023/06/30 06:12:30;;;;;;;44.70;41.37;;;18.70;99.90;;;;;;4933278;29;20468;-74
2023/06/30 06:14:58;;;;;;;45.80;41.80;;;18.70;99.90;;;;;;4932835;29;20485;-75
2023/06/30 06:17:25;;;;;;;44.60;41.07;;;18.60;99.90;;;;;;4935773;29;20513;-75
2023/06/30 06:19:52;;;;;;;46.47;43.00;;;18.50;99.90;;;;;;4936949;29;20496;-74
2023/06/30 06:22:19;;;;;;;46.30;42.27;;;18.60;99.90;;;;;;4937098;29;20453;-75
2023/06/30 06:24:46;;;;;;;48.00;44.40;;;18.60;99.90;;;;;;4936788;29;20493;-76
2023/06/30 06:27:12;;;;;;;46.63;43.30;;;18.60;99.90;;;;;;4937392;29;20457;-75
2023/06/30 06:29:39;;;;;;;44.50;41.37;;;18.70;99.90;;;;;;4937485;29;20449;-75
2023/06/30 06:32:08;;;;;;;42.23;39.00;;;18.60;99.90;;;;;;4937548;29;20509;-74
2023/06/30 06:34:35;;;;;;;45.50;42.10;;;18.60;99.90;;;;;;4937742;29;20457;-75
2023/06/30 06:37:02;;;;;;;46.90;43.47;;;18.60;99.90;;;;;;4937365;29;20496;-74
2023/06/30 06:39:29;;;;;;;44.77;41.67;;;18.70;99.90;;;;;;4937050;29;20485;-74
2023/06/30 06:41:56;;;;;;;43.47;40.40;;;18.70;99.90;;;;;;4937290;29;20437;-74
2023/06/30 06:44:23;;;;;;;45.87;42.57;;;18.70;99.90;;;;;;4935829;29;20449;-74
2023/06/30 06:47:28;;;;;;;44.03;40.83;;;18.70;99.90;;;;;;4936155;29;20504;-74
2023/06/30 06:49:56;;;;;;;43.70;40.53;;;18.70;99.90;;;;;;4934245;29;20446;-74
2023/06/30 06:52:23;;;;;;;44.70;41.50;;;18.70;99.90;;;;;;4936540;29;20453;-74
2023/06/30 06:54:50;;;;;;;43.50;40.20;;;18.80;99.90;;;;;;4936594;29;20469;-74
2023/06/30 06:57:16;;;;;;;45.53;41.73;;;18.90;99.90;;;;;;4936121;29;20865;-75
2023/06/30 06:59:43;;;;;;;46.33;42.73;;;18.90;99.90;;;;;;4935947;29;20481;-75
2023/06/30 07:02:10;;;;;;;44.63;41.10;;;18.90;99.90;;;;;;4936007;29;20528;-74
2023/06/30 07:04:37;;;;;;;46.93;43.70;;;19.00;99.90;;;;;;4936084;29;20445;-74
2023/06/30 07:07:05;;;;;;;44.33;41.17;;;19.00;99.90;;;;;;4935909;29;20445;-73
2023/06/30 07:09:32;;;;;;;46.47;43.23;;;19.10;99.90;;;;;;4935737;29;20453;-75
2023/06/30 07:11:58;;;;;;;46.03;42.73;;;19.10;99.90;;;;;;4935857;29;20460;-75
2023/06/30 07:14:25;;;;;;;46.43;43.23;;;19.10;99.90;;;;;;4935608;29;20461;-75
2023/06/30 07:16:52;;;;;;;47.07;43.87;;;19.10;99.90;;;;;;4935847;29;20457;-75
2023/06/30 07:19:18;;;;;;;48.23;45.10;;;19.20;99.90;;;;;;4934270;29;20445;-75
2023/06/30 07:21:45;;;;;;;49.93;46.33;;;19.40;99.90;;;;;;4935998;29;20449;-85
2023/06/30 07:24:14;;;;;;;46.60;43.50;;;19.40;99.90;;;;;;4936580;29;20469;-88
2023/06/30 07:26:40;;;;;;;49.43;46.33;;;19.50;99.90;;;;;;4936257;29;20473;-86
2023/06/30 07:29:07;;;;;;;45.70;42.43;;;19.60;99.90;;;;;;4933506;29;20498;-86
2023/06/30 07:31:34;;;;;;;44.90;41.87;;;19.60;99.90;;;;;;4935580;29;20450;-84
2023/06/30 07:34:00;;;;;;;42.33;39.67;;;19.60;99.90;;;;;;4935904;29;20805;-87
2023/06/30 07:36:27;;;;;;;42.00;39.30;;;19.60;99.90;;;;;;4935540;29;20881;-85
2023/06/30 07:38:54;;;;;;;40.90;38.40;;;19.60;99.90;;;;;;4935858;29;20811;-86
2023/06/30 07:41:22;;;;;;;39.27;36.37;;;19.70;99.90;;;;;;4936359;29;21026;-83
2023/06/30 07:43:48;;;;;;;40.57;38.00;;;19.70;99.90;;;;;;4935883;29;20861;-84
2023/06/30 07:46:15;;;;;;;40.37;37.37;;;19.80;99.90;;;;;;4926635;29;21007;-85
2023/06/30 07:48:42;;;;;;;38.17;35.87;;;20.00;99.90;;;;;;4935853;29;20477;-84
2023/06/30 07:51:08;;;;;;;36.57;34.47;;;20.10;99.90;;;;;;4936154;29;20469;-84
2023/06/30 07:53:36;;;;;;;37.63;35.20;;;20.20;99.90;;;;;;4936194;29;20465;-83
2023/06/30 07:56:03;;;;;;;32.87;30.97;;;20.40;99.90;;;;;;4935987;29;20460;-82
2023/06/30 07:58:32;;;;;;;33.50;31.30;;;20.60;99.90;;;;;;4936068;29;20461;-82
2023/06/30 08:00:58;;;;;;;31.20;29.40;;;20.60;99.90;;;;;;4935809;29;20493;-81
2023/06/30 08:03:25;;;;;;;29.27;27.67;;;20.80;99.90;;;;;;4936123;29;20590;-82
2023/06/30 08:05:52;;;;;;;28.43;26.90;;;20.90;99.90;;;;;;4935893;29;20512;-82
2023/06/30 08:08:18;;;;;;;37.10;34.93;;;21.10;99.90;;;;;;4935571;29;20965;-85
2023/06/30 08:10:45;;;;;;;45.00;42.00;;;21.10;99.90;;;;;;4937242;29;20461;-86
2023/06/30 08:13:12;;;;;;;45.27;42.47;;;20.80;99.90;;;;;;4938218;29;20948;-87
2023/06/30 08:15:40;;;;;;;48.47;45.07;;;20.70;99.90;;;;;;4935566;29;20471;-90
2023/06/30 08:18:06;;;;;;;47.93;44.93;;;20.60;99.90;;;;;;4925051;29;20473;-88
2023/06/30 08:20:33;;;;;;;48.47;45.17;;;20.60;99.90;;;;;;4925916;29;20494;-88
2023/06/30 08:23:00;;;;;;;49.93;46.43;;;20.40;99.90;;;;;;4919257;29;20490;-88
2023/06/30 08:25:27;;;;;;;49.77;46.33;;;20.30;99.90;;;;;;4923303;29;20450;-89
2023/06/30 08:27:53;;;;;;;53.23;49.47;;;20.40;99.90;;;;;;4924729;29;20475;-89
2023/06/30 08:30:20;;;;;;;49.00;45.70;;;20.40;99.90;;;;;;4919125;29;20462;-86
2023/06/30 08:32:48;;;;;;;51.73;48.03;;;20.40;99.90;;;;;;4914141;29;20580;-85
2023/06/30 08:35:15;;;;;;;49.47;46.27;;;20.40;99.90;;;;;;4916342;29;20819;-86
2023/06/30 08:37:42;;;;;;;54.70;50.93;;;20.40;99.90;;;;;;4916279;29;20933;-88
2023/06/30 08:40:10;;;;;;;51.40;47.90;;;20.20;99.90;;;;;;4916432;29;21004;-87
2023/06/30 08:42:39;;;;;;;50.23;46.63;;;20.00;99.90;;;;;;4917619;29;20455;-87
2023/06/30 08:45:07;;;;;;;50.50;47.00;;;20.00;99.90;;;;;;4916312;29;20454;-87
2023/06/30 08:47:35;;;;;;;52.10;47.87;;;20.00;99.90;;;;;;4916117;29;20522;-85
2023/06/30 08:50:03;;;;;;;48.77;44.97;;;20.00;99.90;;;;;;4916531;29;20483;-87
2023/06/30 08:52:31;;;;;;;47.77;44.07;;;20.10;99.90;;;;;;4920785;29;20462;-89
2023/06/30 08:55:05;;;;;;;49.67;45.47;;;20.10;99.90;;;;;;4922724;29;20512;-90
2023/06/30 08:57:34;;;;;;;49.50;45.77;;;20.20;99.90;;;;;;4926786;29;20469;-88
2023/06/30 09:00:00;;;;;;;52.30;48.60;;;20.20;99.90;;;;;;4921351;29;20484;-88
2023/06/30 09:02:29;;;;;;;53.53;49.77;;;20.30;99.90;;;;;;4919745;29;21018;-87
2023/06/30 09:04:57;;;;;;;50.73;46.93;;;20.40;99.90;;;;;;4925138;29;20549;-89
2023/06/30 09:07:27;;;;;;;49.00;45.40;;;20.50;99.90;;;;;;4917297;29;20490;-88
2023/06/30 09:09:57;;;;;;;50.03;46.23;;;20.40;99.90;;;;;;4917622;29;20458;-89
2023/06/30 09:12:26;;;;;;;48.50;44.93;;;20.50;99.90;;;;;;4916998;29;20466;-84
2023/06/30 09:14:54;;;;;;;46.10;42.60;;;20.40;99.90;;;;;;4920467;29;20516;-83
2023/06/30 09:17:25;;;;;;;49.63;45.67;;;20.20;99.90;;;;;;4948780;29;20461;-83
2023/06/30 09:19:52;;;;;;;46.23;42.60;;;20.00;99.90;;;;;;4947491;29;20437;-81
2023/06/30 09:22:21;;;;;;;49.30;45.60;;;20.10;99.90;;;;;;4935775;29;20449;-81
2023/06/30 09:24:49;;;;;;;48.93;45.17;;;20.00;99.90;;;;;;4934870;29;20449;-81
2023/06/30 09:27:17;;;;;;;51.87;48.20;;;20.10;99.90;;;;;;4935691;29;20453;-81
2023/06/30 09:29:54;;;;;;;52.70;48.50;;;20.10;99.90;;;;;;4935427;29;20456;-82
2023/06/30 09:32:28;;;;;;;49.03;45.50;;;20.10;99.90;;;;;;4935813;29;20465;-86
2023/06/30 09:34:55;;;;;;;48.80;45.10;;;20.20;99.90;;;;;;4934996;29;21014;-83
2023/06/30 09:37:22;;;;;;;51.67;48.03;;;20.30;99.90;;;;;;4934498;29;20457;-85
2023/06/30 09:39:52;;;;;;;50.80;47.03;;;20.40;99.90;;;;;;4934846;29;20899;-86
2023/06/30 09:42:21;;;;;;;54.13;50.00;;;20.60;99.90;;;;;;4934538;29;20489;-83
2023/06/30 09:44:48;;;;;;;54.67;50.73;;;20.60;99.90;;;;;;4934703;29;20449;-84
2023/06/30 09:47:18;;;;;;;55.93;52.00;;;20.70;99.90;;;;;;4934346;29;20986;-87
2023/06/30 09:49:45;;;;;;;54.03;50.10;;;20.80;99.90;;;;;;4935158;29;20799;-85
2023/06/30 09:52:23;;;;;;;55.03;50.67;;;21.00;99.90;;;;;;4934322;29;20456;-84
2023/06/30 09:57:43;;;;;;;55.87;51.77;;;21.10;99.90;;;;;;4955373;29;20453;-83
2023/06/30 10:00:12;;;;;;;52.63;48.93;;;21.00;99.90;;;;;;4935442;29;20457;-82
2023/06/30 10:02:40;;;;;;;52.10;48.47;;;21.10;99.90;;;;;;4933560;29;20488;-83
2023/06/30 10:05:07;;;;;;;54.00;49.77;;;21.00;99.90;;;;;;4934929;29;20880;-84
2023/06/30 10:07:34;;;;;;;51.17;47.60;;;21.10;99.90;;;;;;4934533;29;20464;-85
2023/06/30 10:10:04;;;;;;;52.83;48.93;;;21.30;99.90;;;;;;4934007;29;21022;-83
2023/06/30 10:12:34;;;;;;;51.23;47.63;;;21.20;99.90;;;;;;4934165;29;20821;-85
2023/06/30 10:15:03;;;;;;;50.90;47.40;;;21.20;99.90;;;;;;4934898;29;20500;-84
2023/06/30 10:17:31;;;;;;;51.80;48.20;;;21.20;99.90;;;;;;4934395;29;20571;-86
2023/06/30 10:20:01;;;;;;;52.90;49.00;;;21.00;99.90;;;;;;4934217;29;20502;-86
2023/06/30 10:22:28;;;;;;;46.93;43.33;;;20.90;99.90;;;;;;4935025;29;20488;-87
2023/06/30 10:24:56;;;;;;;49.50;45.70;;;20.90;99.90;;;;;;4934015;29;20978;-87
2023/06/30 10:27:26;;;;;;;53.03;49.13;;;21.00;99.90;;;;;;4934446;29;20469;-87
2023/06/30 10:29:55;;;;;;;52.23;48.80;;;21.00;99.90;;;;;;4934173;29;20468;-86
2023/06/30 10:32:21;;;;;;;50.43;46.83;;;21.10;99.90;;;;;;4934041;29;20453;-85
2023/06/30 10:34:49;;;;;;;49.77;46.37;;;21.10;99.90;;;;;;4933811;29;20454;-85
2023/06/30 10:37:17;;;;;;;53.43;49.83;;;21.00;99.90;;;;;;4935870;29;20454;-86
2023/06/30 10:39:44;;;;;;;54.33;50.73;;;21.10;99.90;;;;;;4934738;29;20468;-87
2023/06/30 10:42:12;;;;;;;53.23;49.30;;;21.20;99.90;;;;;;4934792;29;20991;-85
2023/06/30 10:44:44;;;;;;;52.60;48.90;;;21.30;99.90;;;;;;4934634;29;20464;-88
2023/06/30 10:47:11;;;;;;;52.30;48.40;;;21.30;99.90;;;;;;4934318;29;20457;-87
2023/06/30 10:49:40;;;;;;;48.87;45.60;;;21.40;99.90;;;;;;4934562;29;20466;-85
2023/06/30 10:52:09;;;;;;;48.33;45.23;;;21.40;99.90;;;;;;4934158;29;20466;-85
2023/06/30 10:54:41;;;;;;;48.40;44.90;;;21.30;99.90;;;;;;4934264;29;20959;-83
2023/06/30 10:57:11;;;;;;;50.20;46.50;;;21.10;99.90;;;;;;4934654;29;20461;-84
2023/06/30 10:59:42;;;;;;;47.67;44.33;;;21.00;99.90;;;;;;4934416;29;20476;-83
2023/06/30 11:02:31;;;;;;;49.83;46.30;;;21.00;99.90;;;;;;4935173;29;20486;-83
2023/06/30 11:05:18;;;;;;;47.20;44.07;;;21.20;99.90;;;;;;4932970;29;20472;-84
2023/06/30 11:07:48;;;;;;;47.47;43.77;;;21.30;99.90;;;;;;4939080;29;20453;-82
2023/06/30 11:10:27;;;;;;;48.10;44.60;;;21.30;99.90;;;;;;4937140;29;20533;-84
2023/06/30 11:12:55;;;;;;;47.80;44.20;;;21.40;99.90;;;;;;4937325;29;20583;-83
2023/06/30 11:15:35;;;;;;;47.97;44.50;;;21.40;99.90;;;;;;4941215;29;20492;-83
2023/06/30 11:18:05;;;;;;;48.40;45.20;;;21.60;99.90;;;;;;4943160;29;20453;-87
2023/06/30 11:20:32;;;;;;;47.10;43.70;;;21.90;99.90;;;;;;4937415;29;20461;-88
2023/06/30 11:23:01;;;;;;;44.07;41.07;;;21.90;99.90;;;;;;4937633;29;20716;-88
2023/06/30 11:25:28;;;;;;;45.13;42.13;;;21.90;99.90;;;;;;4937295;29;20461;-84
2023/06/30 11:27:56;;;;;;;45.13;42.23;;;22.00;99.90;;;;;;4936817;29;20940;-84
2023/06/30 11:30:23;;;;;;;45.20;41.80;;;22.10;99.90;;;;;;4936745;29;20559;-87
2023/06/30 11:32:58;;;;;;;45.97;42.50;;;22.20;99.90;;;;;;4936645;29;20453;-86
2023/06/30 11:35:26;;;;;;;43.97;40.80;;;22.40;99.90;;;;;;4936898;29;20533;-87
2023/06/30 11:37:54;;;;;;;38.90;36.20;;;22.30;99.90;;;;;;4937006;29;20464;-87
2023/06/30 11:40:21;;;;;;;36.03;33.73;;;22.40;99.90;;;;;;4940948;29;20461;-83
2023/06/30 11:42:48;;;;;;;35.50;32.60;;;22.50;99.90;;;;;;4936742;29;20879;-81
2023/06/30 11:45:19;;;;;;;30.80;28.60;;;22.80;99.90;;;;;;4936191;29;20457;-81
2023/06/30 11:47:48;;;;;;;31.50;28.80;;;22.60;99.90;;;;;;4936407;29;20939;-80
2023/06/30 11:50:16;;;;;;;29.87;27.47;;;22.70;99.90;;;;;;4936094;29;20472;-81
2023/06/30 11:52:43;;;;;;;27.30;25.33;;;23.00;99.90;;;;;;4935931;29;20454;-82
2023/06/30 11:55:11;;;;;;;30.37;27.87;;;23.10;99.90;;;;;;4936352;29;20819;-82
2023/06/30 11:57:41;;;;;;;31.37;28.70;;;23.30;99.90;;;;;;4937899;29;20473;-82
2023/06/30 12:00:10;;;;;;;27.30;25.40;;;23.50;99.90;;;;;;4939768;29;20454;-84
2023/06/30 12:02:36;;;;;;;29.37;27.20;;;23.80;99.90;;;;;;4952107;29;21229;-84
2023/06/30 12:05:11;;;;;;;29.10;26.90;;;24.20;99.90;;;;;;4959080;29;20438;-83
2023/06/30 12:07:39;;;;;;;27.53;25.13;;;24.60;99.90;;;;;;4949146;29;20954;-82
2023/06/30 12:10:08;;;;;;;28.43;26.23;;;25.20;99.90;;;;;;4941504;29;20528;-83
2023/06/30 12:12:35;;;;;;;24.80;22.97;;;25.40;99.90;;;;;;4936699;29;20453;-83
2023/06/30 12:15:05;;;;;;;27.93;25.63;;;25.60;99.90;;;;;;4936808;29;20572;-83
2023/06/30 12:17:36;;;;;;;26.63;24.70;;;25.60;99.90;;;;;;4936094;29;20807;-84
2023/06/30 12:20:03;;;;;;;28.73;26.43;;;25.80;99.90;;;;;;4936321;29;20489;-84
2023/06/30 12:22:30;;;;;;;26.43;24.43;;;25.40;99.90;;;;;;4937860;29;20525;-83
2023/06/30 12:24:59;;;;;;;27.87;25.50;;;25.60;99.90;;;;;;4936069;29;20458;-82
2023/06/30 12:27:28;;;;;;;27.50;25.30;;;25.70;99.90;;;;;;4935025;29;20461;-79
2023/06/30 12:29:55;;;;;;;25.90;23.77;;;25.80;99.90;;;;;;4935244;29;21010;-79
2023/06/30 12:32:25;;;;;;;26.37;24.33;;;25.70;99.90;;;;;;4935014;29;20450;-79
2023/06/30 12:35:00;;;;;;;26.30;23.73;;;25.60;99.90;;;;;;4935094;29;20465;-78
2023/06/30 12:37:29;;;;;;;28.07;25.50;;;25.40;99.90;;;;;;4934986;29;20456;-78
2023/06/30 12:39:59;;;;;;;26.97;24.67;;;25.50;99.90;;;;;;4934925;29;20458;-77
2023/06/30 12:42:29;;;;;;;28.40;25.70;;;25.60;99.90;;;;;;4934825;29;20540;-78
2023/06/30 12:44:56;;;;;;;26.90;24.70;;;25.90;99.90;;;;;;4934886;29;20564;-77
2023/06/30 12:47:22;;;;;;;26.87;24.83;;;26.00;99.90;;;;;;4934888;29;20465;-78
2023/06/30 12:49:50;;;;;;;27.80;25.40;;;26.10;99.90;;;;;;4934450;29;20462;-77
2023/06/30 12:52:17;;;;;;;26.90;24.77;;;26.30;99.90;;;;;;4934624;29;20701;-77
2023/06/30 12:54:44;;;;;;;27.17;24.90;;;26.60;99.90;;;;;;4934725;29;20461;-77
2023/06/30 12:57:12;;;;;;;26.53;24.20;;;26.80;99.90;;;;;;4934639;29;20555;-76
2023/06/30 12:59:38;;;;;;;25.63;23.63;;;26.80;99.90;;;;;;4934564;29;20464;-76
2023/06/30 13:02:06;;;;;;;25.53;23.37;;;26.90;99.90;;;;;;4934248;29;20544;-76
2023/06/30 13:04:33;;;;;;;27.43;24.87;;;27.00;99.90;;;;;;4934306;29;20892;-75
2023/06/30 13:06:59;;;;;;;25.17;23.17;;;27.10;99.90;;;;;;4929033;29;20970;-75
2023/06/30 13:09:27;;;;;;;25.43;23.40;;;27.30;99.90;;;;;;4933924;29;20465;-75
2023/06/30 13:11:54;;;;;;;26.23;24.00;;;27.40;99.90;;;;;;4934198;29;20461;-75
2023/06/30 13:14:22;;;;;;;27.57;25.27;;;27.30;99.90;;;;;;4933769;29;20868;-75
2023/06/30 13:16:48;;;;;;;25.53;23.67;;;27.60;99.90;;;;;;4915159;29;20454;-75
2023/06/30 13:19:15;;;;;;;24.27;22.47;;;28.30;99.90;;;;;;4915162;29;20466;-75
2023/06/30 13:21:42;;;;;;;25.47;23.57;;;28.00;99.90;;;;;;4914548;29;20486;-75
2023/06/30 13:24:09;;;;;;;24.90;23.00;;;28.40;99.90;;;;;;4914492;29;20447;-75
2023/06/30 13:26:37;;;;;;;26.23;24.03;;;28.80;99.90;;;;;;4914261;29;20975;-76
2023/06/30 13:29:04;;;;;;;25.43;23.23;;;29.00;99.90;;;;;;4895961;29;20455;-76
2023/06/30 13:31:32;;;;;;;24.37;22.60;;;29.20;99.90;;;;;;4896074;29;20459;-76
2023/06/30 13:33:58;;;;;;;26.97;24.77;;;29.50;99.30;;;;;;4896124;29;20871;-76
2023/06/30 13:36:29;;;;;;;27.40;25.10;;;29.80;97.90;;;;;;4896096;29;20463;-76
2023/06/30 13:38:56;;;;;;;26.30;24.33;;;29.50;98.00;;;;;;4895874;29;20467;-75
2023/06/30 13:41:25;;;;;;;24.70;22.83;;;29.40;98.40;;;;;;4895888;29;20467;-74
2023/06/30 13:43:52;;;;;;;24.07;22.27;;;29.60;99.10;;;;;;4895903;29;20554;-75
2023/06/30 13:46:19;;;;;;;25.80;23.63;;;29.40;98.70;;;;;;4895727;29;20469;-75
2023/06/30 13:48:47;;;;;;;26.43;24.27;;;29.00;98.60;;;;;;4895779;29;20470;-75
2023/06/30 13:51:14;;;;;;;26.47;24.37;;;29.20;97.80;;;;;;4895659;29;20482;-76
2023/06/30 13:53:41;;;;;;;26.60;24.47;;;29.40;97.10;;;;;;4895828;29;20798;-75
2023/06/30 13:56:08;;;;;;;27.63;25.33;;;29.70;96.70;;;;;;4896052;29;20486;-75
2023/06/30 13:58:34;;;;;;;26.47;24.27;;;30.10;96.20;;;;;;4895614;29;20447;-76
2023/06/30 14:01:01;;;;;;;26.13;24.07;;;30.50;95.40;;;;;;4895393;29;20467;-75
2023/06/30 14:03:28;;;;;;;27.33;25.13;;;30.50;95.50;;;;;;4895550;29;20546;-75
2023/06/30 14:05:56;;;;;;;26.80;24.73;;;30.80;94.90;;;;;;4895894;29;20466;-75
2023/06/30 14:08:23;;;;;;;26.13;24.13;;;31.10;95.40;;;;;;4895723;29;20455;-75
2023/06/30 14:10:49;;;;;;;27.00;24.60;;;31.70;93.20;;;;;;4895876;29;20455;-75
2023/06/30 14:13:16;;;;;;;27.53;25.47;;;31.20;92.90;;;;;;4895243;29;20479;-75
2023/06/30 14:15:43;;;;;;;27.53;25.43;;;30.90;93.50;;;;;;4923972;29;20473;-76
2023/06/30 14:18:09;;;;;;;26.27;24.23;;;30.60;93.90;;;;;;4931387;29;20894;-76
2023/06/30 14:20:36;;;;;;;27.73;25.53;;;30.10;94.40;;;;;;4932920;29;20458;-76
2023/06/30 14:23:04;;;;;;;24.60;22.67;;;29.40;96.10;;;;;;4932768;29;20598;-76
2023/06/30 14:25:31;;;;;;;27.17;24.80;;;29.00;96.70;;;;;;4932611;29;20450;-76
2023/06/30 14:27:58;;;;;;;27.30;25.07;;;27.20;99.90;;;;;;4932711;29;20932;-75
2023/06/30 14:30:30;;;;;;;27.80;25.60;;;26.20;99.90;;;;;;4930404;29;20485;-75
2023/06/30 14:32:57;;;;;;;27.20;24.90;;;25.50;99.90;;;;;;4932825;29;20449;-75
2023/06/30 14:35:24;;;;;;;28.33;25.80;;;25.10;99.90;;;;;;4932760;29;20448;-75
2023/06/30 14:37:50;;;;;;;31.40;28.80;;;24.70;99.90;;;;;;4934375;29;20975;-75
2023/06/30 14:40:18;;;;;;;28.97;26.60;;;24.50;99.90;;;;;;4936587;29;20814;-75
2023/06/30 14:42:45;;;;;;;28.07;25.83;;;24.10;99.90;;;;;;4933732;29;20512;-75
2023/06/30 14:45:12;;;;;;;27.00;24.50;;;23.90;99.90;;;;;;4936182;29;20457;-75
2023/06/30 14:47:41;;;;;;;26.03;23.87;;;24.20;99.90;;;;;;4936149;29;20520;-75
2023/06/30 14:50:08;;;;;;;25.23;23.27;;;24.80;99.90;;;;;;4936393;29;20583;-76
2023/06/30 14:52:35;;;;;;;26.63;24.50;;;25.10;99.90;;;;;;4936182;29;20450;-75
2023/06/30 14:55:02;;;;;;;26.80;24.67;;;25.60;99.90;;;;;;4936179;29;20453;-76
2023/06/30 14:57:30;;;;;;;26.40;24.10;;;26.10;99.90;;;;;;4936125;29;20477;-75
2023/06/30 14:59:57;;;;;;;27.13;24.63;;;26.30;99.90;;;;;;4936155;29;20449;-76
2023/06/30 15:02:23;;;;;;;25.40;23.40;;;26.60;99.90;;;;;;4936776;29;20499;-76
2023/06/30 15:04:50;;;;;;;26.23;24.23;;;26.60;99.90;;;;;;4936646;29;20465;-75
2023/06/30 15:07:17;;;;;;;25.10;23.10;;;26.20;99.90;;;;;;4936568;29;20457;-76
2023/06/30 15:09:43;;;;;;;24.00;21.90;;;26.10;99.90;;;;;;4936409;29;20457;-76
2023/06/30 15:12:10;;;;;;;24.00;22.10;;;26.00;99.90;;;;;;4936441;29;20466;-76
2023/06/30 15:14:38;;;;;;;24.53;22.73;;;26.10;99.90;;;;;;4936073;29;20500;-75
2023/06/30 15:17:05;;;;;;;24.70;22.90;;;25.90;99.90;;;;;;4936313;29;20504;-76
2023/06/30 15:19:33;;;;;;;22.07;20.50;;;26.30;99.90;;;;;;4935620;29;20457;-76
2023/06/30 15:21:59;;;;;;;22.63;20.80;;;26.40;99.90;;;;;;4935418;29;20454;-77
2023/06/30 15:24:26;;;;;;;23.30;21.60;;;26.20;99.90;;;;;;4935571;29;20512;-77
2023/06/30 15:26:52;;;;;;;24.17;22.20;;;25.90;99.90;;;;;;4935499;29;20497;-76
2023/06/30 15:29:19;;;;;;;21.70;20.10;;;25.90;99.90;;;;;;4935663;29;20454;-76
2023/06/30 15:31:47;;;;;;;23.90;21.90;;;25.50;99.90;;;;;;4935532;29;20508;-77
2023/06/30 15:34:14;;;;;;;24.83;22.73;;;25.60;99.90;;;;;;4932099;29;20480;-76
2023/06/30 15:36:40;;;;;;;22.40;20.70;;;25.60;99.90;;;;;;4935292;29;20453;-76
2023/06/30 15:39:07;;;;;;;23.20;21.10;;;25.60;99.90;;;;;;4935126;29;20453;-77
2023/06/30 15:41:35;;;;;;;21.97;20.23;;;25.90;99.90;;;;;;4935137;29;20486;-76
2023/06/30 15:44:02;;;;;;;25.20;22.90;;;26.10;99.90;;;;;;4939782;29;20901;-77
2023/06/30 15:46:28;;;;;;;23.53;21.50;;;25.70;99.90;;;;;;4939252;29;20449;-76
2023/06/30 15:48:57;;;;;;;24.97;22.77;;;25.70;99.90;;;;;;4942903;29;20453;-76
2023/06/30 15:51:23;;;;;;;22.70;20.90;;;25.60;99.90;;;;;;4944807;29;20541;-79
2023/06/30 15:53:50;;;;;;;25.03;22.93;;;25.60;99.90;;;;;;4941521;29;20453;-78
2023/06/30 15:56:17;;;;;;;21.83;20.23;;;25.70;99.90;;;;;;4937598;29;20464;-77
2023/06/30 15:58:43;;;;;;;24.17;22.07;;;25.30;99.90;;;;;;4936993;29;21030;-78
2023/06/30 16:01:10;;;;;;;23.70;21.83;;;25.00;99.90;;;;;;4936661;29;20453;-78
2023/06/30 16:03:38;;;;;;;22.93;21.03;;;24.60;99.90;;;;;;4936264;29;20524;-77
2023/06/30 16:06:06;;;;;;;22.67;20.97;;;24.60;99.90;;;;;;4935735;29;21017;-78
2023/06/30 16:08:33;;;;;;;25.93;23.70;;;24.50;99.90;;;;;;4936768;29;20457;-83
2023/06/30 16:11:00;;;;;;;23.60;21.57;;;24.40;99.90;;;;;;4936968;29;20540;-77
2023/06/30 16:13:26;;;;;;;23.07;21.17;;;24.40;99.90;;;;;;4937737;29;20469;-78
2023/06/30 16:15:53;;;;;;;24.20;22.30;;;24.40;99.90;;;;;;4935690;29;20485;-78
2023/06/30 16:18:20;;;;;;;24.33;22.03;;;24.40;99.90;;;;;;4935706;29;20469;-78
2023/06/30 16:20:47;;;;;;;22.27;20.43;;;24.40;99.90;;;;;;4935492;29;20457;-78
2023/06/30 16:23:15;;;;;;;23.67;21.57;;;24.40;99.90;;;;;;4935288;29;20486;-77
2023/06/30 16:25:41;;;;;;;22.37;20.77;;;24.30;99.90;;;;;;4935508;29;20859;-78
2023/06/30 16:28:08;;;;;;;24.23;22.10;;;24.30;99.90;;;;;;4935228;29;20530;-78
2023/06/30 16:30:36;;;;;;;23.50;21.50;;;24.40;99.90;;;;;;4935184;29;20944;-77
2023/06/30 16:33:03;;;;;;;24.47;22.47;;;24.30;99.90;;;;;;4935398;29;20592;-77
2023/06/30 16:35:31;;;;;;;22.80;20.80;;;24.30;99.90;;;;;;4934878;29;20884;-76
2023/06/30 16:37:58;;;;;;;25.03;22.90;;;24.50;99.90;;;;;;4929674;29;20584;-77
2023/06/30 16:40:26;;;;;;;23.13;21.33;;;24.70;99.90;;;;;;4934666;29;20460;-77
2023/06/30 16:42:53;;;;;;;23.37;21.40;;;24.60;99.90;;;;;;4934574;29;20490;-75
2023/06/30 16:45:20;;;;;;;22.93;20.93;;;24.40;99.90;;;;;;4934887;29;20489;-77
2023/06/30 16:47:47;;;;;;;24.40;22.43;;;24.50;99.90;;;;;;4934595;29;20457;-78